createdAt,value
2019-05-23T00:00:11.879Z,8.60
2019-05-23T00:02:55.367Z,8.50
2019-05-23T00:05:34.352Z,8.40
2019-05-23T00:08:11.603Z,8.30
2019-05-23T00:10:45.979Z,8.30
2019-05-23T00:13:53.705Z,8.20
2019-05-23T00:16:27.134Z,8.20
2019-05-23T00:18:58.706Z,8.10
2019-05-23T00:21:30.818Z,8.10
2019-05-23T00:24:01.597Z,8.10
2019-05-23T00:26:32.732Z,8.10
2019-05-23T00:29:10.307Z,8.10
2019-05-23T00:31:46.691Z,8.10
2019-05-23T00:34:18.119Z,8.10
2019-05-23T00:36:51.352Z,8.10
2019-05-23T00:39:23.845Z,8.00
2019-05-23T00:41:56.725Z,8.00
2019-05-23T00:44:28.500Z,7.90
2019-05-23T00:46:59.804Z,7.90
2019-05-23T00:49:30.771Z,7.90
2019-05-23T00:52:01.354Z,7.90
2019-05-23T00:54:32.714Z,7.90
2019-05-23T00:57:03.654Z,7.90
2019-05-23T00:59:34.425Z,7.80
2019-05-23T01:02:06.843Z,7.80
2019-05-23T01:04:40.074Z,7.70
2019-05-23T01:07:12.760Z,7.70
2019-05-23T01:09:44.398Z,7.70
2019-05-23T01:12:16.753Z,7.70
2019-05-23T01:14:48.732Z,7.70
2019-05-23T01:17:22.232Z,7.70
2019-05-23T01:19:55.040Z,7.70
2019-05-23T01:22:25.894Z,7.70
2019-05-23T01:24:56.582Z,7.70
2019-05-23T01:27:27.502Z,7.60
2019-05-23T01:29:58.089Z,7.60
2019-05-23T01:32:42.627Z,7.60
2019-05-23T01:35:17.260Z,7.50
2019-05-23T01:37:48.579Z,7.50
2019-05-23T01:40:20.500Z,7.50
2019-05-23T01:42:51.663Z,7.50
2019-05-23T01:45:22.967Z,7.50
2019-05-23T01:47:53.655Z,7.40
2019-05-23T01:50:28.018Z,7.40
2019-05-23T01:52:59.203Z,7.40
2019-05-23T01:55:29.830Z,7.40
2019-05-23T01:58:00.503Z,7.40
2019-05-23T02:00:31.635Z,7.40
2019-05-23T02:03:02.614Z,7.40
2019-05-23T02:05:33.553Z,7.50
2019-05-23T02:08:05.138Z,7.60
2019-05-23T02:10:36.875Z,7.70
2019-05-23T02:13:09.339Z,7.80
2019-05-23T02:15:40.459Z,7.70
2019-05-23T02:18:11.628Z,7.70
2019-05-23T02:20:42.785Z,7.60
2019-05-23T02:23:15.024Z,7.50
2019-05-23T02:25:46.577Z,7.50
2019-05-23T02:28:18.227Z,7.60
2019-05-23T02:30:50.755Z,7.50
2019-05-23T02:33:21.487Z,7.50
2019-05-23T02:35:52.127Z,7.50
2019-05-23T02:38:37.678Z,7.50
2019-05-23T02:41:24.058Z,7.50
2019-05-23T02:43:59.007Z,7.50
2019-05-23T02:46:35.294Z,7.50
2019-05-23T02:49:08.045Z,7.50
2019-05-23T02:51:40.131Z,7.40
2019-05-23T02:54:14.155Z,7.40
2019-05-23T02:56:46.192Z,7.40
2019-05-23T02:59:46.811Z,7.40
2019-05-23T03:02:54.935Z,7.40
2019-05-23T03:05:29.292Z,7.30
2019-05-23T03:08:01.492Z,7.10
2019-05-23T03:10:54.765Z,7.10
2019-05-23T03:13:28.419Z,7.10
2019-05-23T03:16:00.949Z,7.00
2019-05-23T03:18:34.925Z,7.00
2019-05-23T03:21:08.380Z,7.00
2019-05-23T03:23:40.665Z,7.00
2019-05-23T03:27:00.260Z,7.00
2019-05-23T03:29:33.521Z,6.90
2019-05-23T03:32:38.067Z,6.80
2019-05-23T03:35:24.795Z,6.70
2019-05-23T03:37:57.133Z,6.80
2019-05-23T03:40:27.882Z,6.80
2019-05-23T03:43:00.126Z,6.80
2019-05-23T03:45:33.436Z,6.70
2019-05-23T03:48:05.388Z,6.80
2019-05-23T03:50:36.818Z,6.80
2019-05-23T03:53:08.209Z,6.80
2019-05-23T03:55:39.367Z,6.90
2019-05-23T03:58:11.758Z,6.90
2019-05-23T04:00:49.949Z,6.90
2019-05-23T04:03:21.189Z,6.90
2019-05-23T04:05:52.482Z,6.90
2019-05-23T04:08:23.728Z,6.90
2019-05-23T04:10:55.398Z,7.00
2019-05-23T04:13:26.425Z,7.10
2019-05-23T04:15:57.460Z,7.20
2019-05-23T04:18:28.592Z,7.30
2019-05-23T04:20:59.323Z,7.40
2019-05-23T04:23:30.078Z,7.50
2019-05-23T04:26:00.871Z,7.60
2019-05-23T04:28:32.261Z,7.60
2019-05-23T04:31:03.569Z,7.70
2019-05-23T04:33:34.688Z,7.80
2019-05-23T04:36:05.900Z,7.80
2019-05-23T04:38:36.919Z,7.90
2019-05-23T04:41:07.958Z,7.80
2019-05-23T04:43:38.578Z,7.90
2019-05-23T04:46:10.041Z,7.90
2019-05-23T04:48:40.976Z,7.90
2019-05-23T04:51:12.326Z,8.00
2019-05-23T04:53:43.722Z,8.10
2019-05-23T04:56:15.465Z,8.10
2019-05-23T04:58:46.663Z,8.20
2019-05-23T05:01:19.389Z,8.10
2019-05-23T05:03:51.200Z,8.10
2019-05-23T05:06:21.969Z,8.00
2019-05-23T05:08:54.741Z,8.10
2019-05-23T05:11:30.222Z,8.20
2019-05-23T05:13:58.762Z,8.30
2019-05-23T05:16:29.630Z,8.40
2019-05-23T05:19:01.296Z,8.50
2019-05-23T05:21:31.930Z,8.50
2019-05-23T05:24:02.515Z,8.60
2019-05-23T05:26:33.569Z,8.60
2019-05-23T05:29:05.279Z,8.60
2019-05-23T05:31:36.956Z,8.70
2019-05-23T05:34:07.920Z,8.90
2019-05-23T05:36:38.619Z,9.00
2019-05-23T05:39:11.776Z,9.10
2019-05-23T05:41:42.531Z,9.10
2019-05-23T05:44:13.271Z,9.20
2019-05-23T05:46:44.358Z,9.30
2019-05-23T05:49:15.133Z,9.50
2019-05-23T05:51:46.341Z,9.70
2019-05-23T05:54:17.247Z,9.70
2019-05-23T05:56:48.337Z,9.80
2019-05-23T05:59:18.909Z,10.00
2019-05-23T06:01:49.917Z,10.10
2019-05-23T06:04:20.495Z,10.30
2019-05-23T06:07:01.037Z,10.40
2019-05-23T06:09:33.131Z,10.40
2019-05-23T06:12:04.519Z,10.50
2019-05-23T06:14:35.084Z,10.60
2019-05-23T06:17:08.027Z,10.70
2019-05-23T06:19:38.782Z,10.90
2019-05-23T06:22:10.271Z,11.00
2019-05-23T06:24:49.658Z,11.20
2019-05-23T06:27:15.659Z,11.40
2019-05-23T06:29:46.245Z,11.50
2019-05-23T06:32:19.019Z,11.70
2019-05-23T06:34:50.217Z,11.70
2019-05-23T06:37:21.332Z,11.80
2019-05-23T06:39:52.732Z,12.00
2019-05-23T06:42:23.621Z,12.10
2019-05-23T06:44:54.650Z,12.10
2019-05-23T06:47:26.547Z,12.20
2019-05-23T06:49:57.943Z,12.40
2019-05-23T06:52:28.489Z,12.50
2019-05-23T06:54:59.983Z,12.60
2019-05-23T06:57:30.688Z,12.60
2019-05-23T07:00:01.946Z,12.60
2019-05-23T07:02:33.696Z,12.80
2019-05-23T07:05:05.259Z,12.80
2019-05-23T07:07:37.482Z,12.70
2019-05-23T07:10:08.526Z,12.70
2019-05-23T07:12:39.192Z,12.80
2019-05-23T07:15:11.133Z,13.00
2019-05-23T07:17:41.982Z,12.90
2019-05-23T07:20:13.568Z,12.90
2019-05-23T07:22:44.303Z,13.00
2019-05-23T07:25:15.852Z,13.20
2019-05-23T07:27:47.176Z,13.30
2019-05-23T07:30:23.826Z,13.30
2019-05-23T07:32:54.830Z,13.50
2019-05-23T07:35:26.271Z,13.50
2019-05-23T07:37:56.992Z,13.20
2019-05-23T07:40:29.135Z,13.30
2019-05-23T07:43:01.336Z,13.50
2019-05-23T07:45:39.987Z,13.60
2019-05-23T07:48:11.103Z,13.80
2019-05-23T07:50:42.130Z,13.90
2019-05-23T07:53:17.072Z,14.10
2019-05-23T07:55:48.797Z,14.10
2019-05-23T07:58:19.683Z,14.20
2019-05-23T08:00:57.176Z,14.30
2019-05-23T08:03:30.614Z,14.50
2019-05-23T08:06:01.562Z,14.30
2019-05-23T08:08:32.478Z,14.40
2019-05-23T08:11:03.202Z,14.60
2019-05-23T08:13:34.370Z,14.70
2019-05-23T08:16:06.271Z,14.80
2019-05-23T08:18:37.269Z,15.10
2019-05-23T08:21:08.210Z,15.30
2019-05-23T08:23:38.994Z,15.50
2019-05-23T08:26:09.572Z,15.40
2019-05-23T08:28:56.725Z,15.10
2019-05-23T08:31:13.104Z,15.20
2019-05-23T08:33:43.788Z,15.50
2019-05-23T08:36:15.405Z,15.60
2019-05-23T08:38:46.567Z,15.70
2019-05-23T08:41:17.814Z,15.80
2019-05-23T08:43:48.385Z,15.60
2019-05-23T08:46:19.711Z,15.60
2019-05-23T08:48:50.534Z,16.00
2019-05-23T08:51:21.420Z,15.70
2019-05-23T08:53:52.955Z,15.70
2019-05-23T08:56:24.012Z,15.60
2019-05-23T08:58:55.232Z,15.70
2019-05-23T09:01:26.145Z,15.90
2019-05-23T09:03:57.529Z,16.10
2019-05-23T09:06:28.736Z,16.20
2019-05-23T09:09:00.024Z,16.10
2019-05-23T09:11:31.271Z,15.90
2019-05-23T09:14:02.212Z,16.00
2019-05-23T09:16:33.565Z,16.00
2019-05-23T09:19:04.559Z,15.70
2019-05-23T09:21:35.309Z,15.60
2019-05-23T09:24:06.784Z,15.80
2019-05-23T09:26:37.757Z,15.80
2019-05-23T09:29:10.211Z,15.80
2019-05-23T09:31:40.970Z,15.50
2019-05-23T09:34:11.539Z,15.80
2019-05-23T09:36:42.617Z,16.10
2019-05-23T09:39:15.480Z,16.10
2019-05-23T09:41:47.558Z,16.40
2019-05-23T09:44:18.162Z,16.70
2019-05-23T09:46:49.235Z,17.00
2019-05-23T09:49:19.793Z,17.30
2019-05-23T09:51:54.472Z,16.60
2019-05-23T09:54:23.618Z,16.30
2019-05-23T09:56:55.413Z,16.20
2019-05-23T09:59:27.003Z,16.10
2019-05-23T10:01:58.198Z,16.20
2019-05-23T10:04:28.760Z,16.30
2019-05-23T10:06:59.720Z,16.20
2019-05-23T10:09:30.419Z,16.50
2019-05-23T10:12:01.274Z,17.00
2019-05-23T10:14:33.968Z,17.10
2019-05-23T10:17:04.759Z,17.60
2019-05-23T10:19:35.749Z,17.60
2019-05-23T10:22:06.790Z,17.60
2019-05-23T10:24:37.458Z,18.10
2019-05-23T10:27:09.766Z,18.10
2019-05-23T10:29:40.741Z,18.10
2019-05-23T10:32:12.829Z,18.40
2019-05-23T10:34:43.511Z,18.70
2019-05-23T10:37:16.748Z,19.10
2019-05-23T10:39:54.663Z,19.00
2019-05-23T10:42:28.311Z,18.30
2019-05-23T10:44:59.614Z,18.30
2019-05-23T10:47:30.821Z,18.30
2019-05-23T10:50:07.880Z,18.40
2019-05-23T10:52:35.440Z,18.30
2019-05-23T10:55:07.434Z,18.20
2019-05-23T10:57:37.998Z,18.30
2019-05-23T11:00:10.294Z,18.60
2019-05-23T11:02:41.553Z,18.30
2019-05-23T11:05:14.066Z,18.80
2019-05-23T11:07:44.930Z,19.20
2019-05-23T11:10:16.826Z,20.10
2019-05-23T11:12:47.415Z,20.90
2019-05-23T11:15:18.356Z,20.20
2019-05-23T11:17:53.002Z,20.20
2019-05-23T11:20:21.789Z,19.80
2019-05-23T11:22:53.053Z,19.70
2019-05-23T11:25:24.035Z,19.10
2019-05-23T11:27:54.878Z,18.70
2019-05-23T11:30:32.460Z,19.00
2019-05-23T11:33:03.234Z,19.70
2019-05-23T11:35:34.924Z,19.90
2019-05-23T11:38:05.812Z,19.50
2019-05-23T11:40:36.498Z,20.70
2019-05-23T11:43:07.050Z,20.70
2019-05-23T11:45:46.166Z,19.60
2019-05-23T11:48:17.647Z,19.50
2019-05-23T11:50:48.506Z,19.30
2019-05-23T11:53:19.463Z,20.20
2019-05-23T11:55:54.191Z,20.70
2019-05-23T11:58:22.861Z,20.70
2019-05-23T12:01:28.544Z,20.20
2019-05-23T12:04:10.235Z,20.30
2019-05-23T12:07:02.506Z,20.20
2019-05-23T12:09:33.411Z,20.00
2019-05-23T12:12:04.008Z,20.80
2019-05-23T12:14:35.068Z,19.80
2019-05-23T12:17:05.993Z,19.70
2019-05-23T12:19:37.266Z,19.60
2019-05-23T12:22:08.486Z,19.60
2019-05-23T12:24:39.113Z,20.00
2019-05-23T12:27:10.258Z,19.90
2019-05-23T12:29:41.228Z,19.70
2019-05-23T12:32:13.699Z,19.30
2019-05-23T12:35:08.113Z,19.50
2019-05-23T12:37:20.516Z,19.40
2019-05-23T12:39:50.906Z,19.20
2019-05-23T12:42:22.168Z,19.00
2019-05-23T12:44:53.097Z,19.00
2019-05-23T12:47:32.462Z,19.30
2019-05-23T12:50:09.877Z,19.30
2019-05-23T12:52:40.864Z,19.50
2019-05-23T12:55:11.910Z,19.40
2019-05-23T12:57:42.862Z,19.30
2019-05-23T13:00:23.001Z,19.60
2019-05-23T13:02:54.139Z,20.30
2019-05-23T13:05:25.457Z,20.10
2019-05-23T13:07:56.427Z,19.90
2019-05-23T13:10:27.421Z,20.40
2019-05-23T13:12:58.610Z,20.90
2019-05-23T13:15:30.133Z,20.80
2019-05-23T13:18:00.756Z,21.00
2019-05-23T13:20:31.890Z,21.90
2019-05-23T13:23:02.784Z,23.00
2019-05-23T13:25:33.399Z,23.00
2019-05-23T13:28:04.321Z,22.30
2019-05-23T13:30:35.067Z,22.70
2019-05-23T13:33:05.944Z,22.90
2019-05-23T13:35:36.863Z,23.10
2019-05-23T13:38:07.545Z,23.40
2019-05-23T13:40:39.171Z,23.00
2019-05-23T13:43:09.964Z,21.50
2019-05-23T13:45:40.920Z,21.20
2019-05-23T13:48:11.865Z,21.60
2019-05-23T13:50:43.266Z,21.30
2019-05-23T13:53:13.984Z,21.60
2019-05-23T13:55:44.821Z,21.80
2019-05-23T13:58:15.872Z,21.70
2019-05-23T14:00:48.392Z,23.00
2019-05-23T14:03:19.342Z,23.80
2019-05-23T14:05:50.592Z,23.60
2019-05-23T14:08:21.566Z,22.60
2019-05-23T14:10:52.407Z,23.40
2019-05-23T14:13:23.704Z,23.40
2019-05-23T14:15:55.413Z,22.20
2019-05-23T14:18:28.746Z,22.50
2019-05-23T14:20:59.442Z,22.80
2019-05-23T14:23:31.817Z,21.70
2019-05-23T14:26:04.739Z,21.60
2019-05-23T14:28:35.860Z,22.20
2019-05-23T14:31:09.399Z,22.30
2019-05-23T14:33:44.895Z,22.60
2019-05-23T14:36:23.126Z,22.20
2019-05-23T14:38:55.575Z,22.20
2019-05-23T14:41:43.873Z,22.30
2019-05-23T14:44:00.311Z,22.60
2019-05-23T14:46:34.805Z,22.80
2019-05-23T14:49:14.564Z,23.60
2019-05-23T14:51:52.827Z,24.00
2019-05-23T14:54:31.617Z,24.40
2019-05-23T14:57:04.870Z,24.60
2019-05-23T14:59:35.867Z,24.30
2019-05-23T15:02:12.057Z,23.60
2019-05-23T15:04:43.296Z,24.00
2019-05-23T15:07:14.069Z,24.70
2019-05-23T15:09:45.030Z,24.70
2019-05-23T15:12:15.697Z,24.50
2019-05-23T15:14:46.856Z,24.40
2019-05-23T15:17:17.693Z,24.00
2019-05-23T15:19:48.351Z,24.40
2019-05-23T15:22:19.468Z,24.40
2019-05-23T15:24:50.447Z,24.60
2019-05-23T15:27:21.365Z,24.80
2019-05-23T15:29:52.015Z,25.00
2019-05-23T15:32:22.826Z,25.50
2019-05-23T15:34:53.777Z,26.00
2019-05-23T15:37:24.846Z,26.10
2019-05-23T15:39:56.303Z,25.40
2019-05-23T15:42:26.960Z,24.20
2019-05-23T15:44:58.038Z,24.40
2019-05-23T15:47:32.931Z,24.00
2019-05-23T15:50:08.577Z,23.80
2019-05-23T15:53:06.191Z,23.10
2019-05-23T15:55:42.638Z,23.30
2019-05-23T15:58:29.196Z,24.60
2019-05-23T16:01:22.817Z,25.30
2019-05-23T16:03:55.982Z,24.00
2019-05-23T16:06:28.764Z,23.80
2019-05-23T16:08:59.801Z,23.40
2019-05-23T16:11:30.722Z,23.50
2019-05-23T16:14:01.336Z,23.20
2019-05-23T16:16:32.340Z,23.10
2019-05-23T16:19:03.031Z,23.40
2019-05-23T16:21:34.075Z,23.90
2019-05-23T16:24:06.217Z,23.70
2019-05-23T16:26:37.102Z,23.50
2019-05-23T16:29:08.329Z,22.50
2019-05-23T16:31:39.461Z,22.80
2019-05-23T16:34:10.098Z,23.70
2019-05-23T16:36:40.843Z,24.70
2019-05-23T16:39:11.883Z,24.90
2019-05-23T16:41:42.554Z,24.30
2019-05-23T16:44:13.684Z,24.00
2019-05-23T16:46:44.699Z,23.10
2019-05-23T16:49:16.059Z,22.70
2019-05-23T16:51:46.642Z,22.50
2019-05-23T16:54:19.487Z,22.10
2019-05-23T16:57:03.729Z,22.60
2019-05-23T16:59:45.823Z,22.10
2019-05-23T17:02:38.864Z,21.60
2019-05-23T17:05:47.730Z,22.00
2019-05-23T17:08:37.329Z,22.60
2019-05-23T17:11:42.567Z,22.30
2019-05-23T17:14:19.409Z,21.40
2019-05-23T17:17:07.562Z,20.80
2019-05-23T17:20:18.176Z,20.40
2019-05-23T17:22:50.751Z,19.90
2019-05-23T17:25:40.239Z,19.70
2019-05-23T17:28:29.010Z,19.50
2019-05-23T17:31:05.782Z,19.10
2019-05-23T17:33:37.215Z,19.00
2019-05-23T17:36:08.287Z,18.90
2019-05-23T17:38:38.991Z,18.90
2019-05-23T17:41:10.274Z,18.80
2019-05-23T17:43:41.020Z,18.80
2019-05-23T17:46:11.891Z,18.60
2019-05-23T17:48:42.683Z,18.50
2019-05-23T17:51:13.715Z,18.30
2019-05-23T17:53:44.573Z,18.20
2019-05-23T17:56:15.515Z,18.10
2019-05-23T17:58:46.274Z,18.10
2019-05-23T18:01:17.936Z,18.00
2019-05-23T18:03:48.680Z,17.80
2019-05-23T18:06:20.163Z,17.70
2019-05-23T18:08:51.971Z,17.60
2019-05-23T18:11:23.095Z,17.50
2019-05-23T18:13:54.555Z,17.50
2019-05-23T18:16:26.115Z,17.40
2019-05-23T18:18:57.316Z,17.30
2019-05-23T18:21:28.375Z,17.20
2019-05-23T18:23:59.819Z,17.10
2019-05-23T18:26:30.860Z,17.10
2019-05-23T18:29:01.868Z,17.00
2019-05-23T18:31:35.117Z,16.90
2019-05-23T18:34:07.826Z,16.90
2019-05-23T18:36:39.430Z,16.80
2019-05-23T18:39:13.004Z,16.70
2019-05-23T18:41:43.968Z,16.70
2019-05-23T18:44:15.797Z,16.70
2019-05-23T18:46:49.558Z,16.60
2019-05-23T18:49:20.751Z,16.60
2019-05-23T18:51:51.677Z,16.50
2019-05-23T18:54:22.228Z,16.40
2019-05-23T18:56:53.388Z,16.30
2019-05-23T18:59:23.944Z,16.10
2019-05-23T19:01:55.338Z,16.00
2019-05-23T19:04:26.756Z,16.00
2019-05-23T19:06:59.060Z,15.90
2019-05-23T19:09:30.248Z,15.80
2019-05-23T19:12:01.261Z,15.70
2019-05-23T19:14:32.250Z,15.60
2019-05-23T19:17:04.476Z,15.50
2019-05-23T19:19:36.216Z,15.40
2019-05-23T19:22:07.699Z,15.40
2019-05-23T19:24:39.236Z,15.30
2019-05-23T19:27:14.156Z,15.30
2019-05-23T19:29:44.767Z,15.30
2019-05-23T19:32:16.392Z,15.30
2019-05-23T19:34:47.140Z,15.30
2019-05-23T19:37:18.350Z,15.20
2019-05-23T19:39:49.180Z,15.20
2019-05-23T19:42:21.399Z,15.10
2019-05-23T19:44:52.749Z,15.10
2019-05-23T19:47:24.155Z,15.20
2019-05-23T19:49:55.357Z,15.10
2019-05-23T19:52:26.871Z,15.20
2019-05-23T19:54:57.831Z,15.10
2019-05-23T19:57:30.943Z,15.00
2019-05-23T20:00:02.360Z,14.90
2019-05-23T20:02:41.156Z,14.80
2019-05-23T20:05:17.825Z,14.70
2019-05-23T20:07:48.552Z,14.70
2019-05-23T20:10:21.949Z,14.70
2019-05-23T20:12:53.912Z,14.70
2019-05-23T20:15:29.517Z,14.60
2019-05-23T20:18:01.164Z,14.50
2019-05-23T20:20:34.184Z,14.40
2019-05-23T20:23:05.271Z,14.30
2019-05-23T20:25:36.684Z,14.30
2019-05-23T20:28:09.233Z,14.30
2019-05-23T20:30:59.390Z,14.40
2019-05-23T20:33:31.682Z,14.30
2019-05-23T20:36:04.833Z,14.30
2019-05-23T20:38:35.628Z,14.20
2019-05-23T20:41:06.639Z,14.40
2019-05-23T20:43:37.682Z,14.40
2019-05-23T20:46:09.102Z,14.30
2019-05-23T20:48:40.551Z,14.30
2019-05-23T20:51:11.146Z,14.20
2019-05-23T20:53:43.081Z,14.20
2019-05-23T20:56:14.171Z,14.10
2019-05-23T20:58:45.559Z,14.10
2019-05-23T21:01:27.092Z,14.10
2019-05-23T21:03:59.172Z,14.10
2019-05-23T21:06:30.316Z,14.10
2019-05-23T21:09:01.513Z,14.10
2019-05-23T21:11:32.285Z,14.10
2019-05-23T21:14:03.724Z,14.10
2019-05-23T21:16:34.363Z,14.00
2019-05-23T21:19:05.102Z,13.90
2019-05-23T21:21:35.753Z,13.70
2019-05-23T21:24:06.696Z,13.70
2019-05-23T21:26:37.380Z,13.70
2019-05-23T21:29:08.055Z,13.60
2019-05-23T21:31:38.696Z,13.60
2019-05-23T21:34:09.386Z,13.60
2019-05-23T21:36:40.366Z,13.60
2019-05-23T21:39:11.991Z,13.60
2019-05-23T21:41:42.950Z,13.60
2019-05-23T21:44:13.959Z,13.60
2019-05-23T21:46:44.928Z,13.60
2019-05-23T21:49:15.929Z,13.50
2019-05-23T21:51:47.440Z,13.30
2019-05-23T21:54:18.315Z,13.00
2019-05-23T21:56:49.028Z,12.90
2019-05-23T21:59:19.694Z,12.80
2019-05-23T22:02:10.051Z,12.80
2019-05-23T22:04:52.956Z,12.80
2019-05-23T22:07:24.151Z,12.80
2019-05-23T22:09:55.419Z,12.70
2019-05-23T22:12:26.378Z,12.70
2019-05-23T22:14:57.614Z,12.70
2019-05-23T22:17:28.344Z,12.70
2019-05-23T22:19:59.169Z,12.60
2019-05-23T22:22:30.205Z,12.60
2019-05-23T22:25:01.822Z,12.60
2019-05-23T22:27:32.813Z,12.60
2019-05-23T22:30:04.220Z,12.70
2019-05-23T22:32:35.802Z,12.60
2019-05-23T22:35:14.508Z,12.50
2019-05-23T22:37:45.057Z,12.40
2019-05-23T22:40:15.665Z,12.30
2019-05-23T22:42:46.249Z,12.20
2019-05-23T22:45:19.814Z,12.10
2019-05-23T22:47:50.378Z,12.10
2019-05-23T22:50:21.024Z,12.00
2019-05-23T22:52:51.956Z,12.00
2019-05-23T22:55:22.662Z,11.90
2019-05-23T22:57:53.601Z,11.80
2019-05-23T23:00:32.128Z,11.80
2019-05-23T23:03:02.866Z,11.80
2019-05-23T23:05:33.993Z,11.80
2019-05-23T23:08:04.792Z,11.80
2019-05-23T23:10:35.685Z,11.80
2019-05-23T23:13:06.453Z,11.90
2019-05-23T23:15:37.268Z,11.90
2019-05-23T23:18:08.271Z,12.00
2019-05-23T23:20:38.857Z,12.00
2019-05-23T23:23:10.190Z,12.10
2019-05-23T23:25:41.129Z,12.20
2019-05-23T23:28:12.836Z,12.20
2019-05-23T23:30:45.111Z,12.20
2019-05-23T23:33:15.702Z,12.10
2019-05-23T23:35:46.994Z,12.10
2019-05-23T23:38:17.926Z,12.00
2019-05-23T23:40:48.864Z,11.90
2019-05-23T23:43:19.505Z,11.70
2019-05-23T23:46:08.202Z,11.70
2019-05-23T23:48:56.775Z,11.60
2019-05-23T23:51:45.566Z,11.50
2019-05-23T23:54:34.837Z,11.40
2019-05-23T23:57:24.573Z,11.30
2019-05-23T23:59:54.122Z,11.10
